Time;durP1;ratioP1;P1;durP2;ratioP2;P2;SDS_P1;SDS_P2;PMS_P1;PMS_P2;Temp;Humidity;BMP_temperature;BMP_pressure;BME280_temperature;BME280_humidity;BME280_pressure;Samples;Min_cycle;Max_cycle;Signal;HPM_P1;HPM_P2
2023/03/21 00:01:41;;;;;;;50.50;27.30;;;;;;;6.24;100.00;100988.00;4970920;28;20042;-76
2023/03/21 00:04:06;;;;;;;53.17;29.37;;;;;;;6.29;100.00;101001.69;4975870;28;20269;-79
2023/03/21 00:06:32;;;;;;;46.70;27.00;;;;;;;6.31;100.00;101009.53;4973551;28;20034;-79
2023/03/21 00:08:57;;;;;;;57.53;30.03;;;;;;;6.24;100.00;100998.59;4973168;28;20289;-79
2023/03/21 00:11:22;;;;;;;63.37;30.90;;;;;;;6.25;100.00;100999.44;4957500;28;20033;-79
2023/03/21 00:13:48;;;;;;;55.73;30.53;;;;;;;6.21;100.00;100992.72;4974292;28;20041;-78
2023/03/21 00:16:16;;;;;;;51.50;28.30;;;;;;;6.24;100.00;100995.94;4975737;28;20039;-79
2023/03/21 00:18:45;;;;;;;57.08;29.77;;;;;;;6.26;100.00;100995.81;4956766;28;20423;-79
2023/03/21 00:21:14;;;;;;;64.00;31.00;;;;;;;6.21;100.00;100998.88;4973815;28;20601;-77
2023/03/21 00:23:40;;;;;;;54.97;29.83;;;;;;;6.20;100.00;100999.81;4973529;28;20397;-80
2023/03/21 00:26:09;;;;;;;54.60;28.65;;;;;;;6.18;100.00;101004.44;4973137;28;20561;-76
2023/03/21 00:28:38;;;;;;;59.70;30.27;;;;;;;6.27;100.00;100992.19;4972560;28;20027;-77
2023/03/21 00:31:05;;;;;;;53.50;29.83;;;;;;;6.26;100.00;100996.66;4956673;28;20033;-77
2023/03/21 00:33:31;;;;;;;58.85;30.10;;;;;;;6.23;100.00;100990.78;4957187;28;20523;-76
2023/03/21 00:35:57;;;;;;;63.33;31.30;;;;;;;6.28;100.00;100989.41;4972083;28;20026;-78
2023/03/21 00:38:22;;;;;;;52.55;29.40;;;;;;;6.27;100.00;100990.38;4973462;28;20056;-79
2023/03/21 00:40:48;;;;;;;50.55;27.90;;;;;;;6.29;100.00;100991.09;4971186;28;20043;-79
2023/03/21 00:43:16;;;;;;;56.80;30.00;;;;;;;6.25;100.00;100973.78;4974999;28;20038;-79
2023/03/21 00:45:45;;;;;;;57.83;31.55;;;;;;;6.28;100.00;100978.81;4964342;28;20138;-76
2023/03/21 00:48:12;;;;;;;66.10;32.55;;;;;;;6.13;100.00;100974.78;4933040;28;20027;-75
2023/03/21 00:50:38;;;;;;;52.10;29.30;;;;;;;6.19;100.00;100968.97;4956658;28;20041;-77
2023/03/21 00:53:05;;;;;;;60.40;31.52;;;;;;;6.28;100.00;100983.28;4972997;28;20038;-77
2023/03/21 00:55:30;;;;;;;57.70;30.55;;;;;;;6.20;100.00;100975.13;4972346;28;20038;-74
2023/03/21 00:57:56;;;;;;;64.75;31.55;;;;;;;6.19;100.00;100970.81;4974151;28;20089;-74
2023/03/21 01:00:23;;;;;;;61.58;31.55;;;;;;;6.21;100.00;100971.50;4967075;28;20034;-75
2023/03/21 01:02:57;;;;;;;61.13;30.63;;;;;;;6.22;100.00;100975.84;4969839;28;20587;-77
2023/03/21 01:08:35;;;;;;;62.88;30.55;;;;;;;6.18;100.00;100977.91;4915255;29;20429;-77
2023/03/21 01:11:05;;;;;;;59.28;30.83;;;;;;;6.19;100.00;100976.94;4918042;29;20505;-74
2023/03/21 01:13:30;;;;;;;65.25;32.20;;;;;;;6.16;100.00;100963.94;4911495;29;20095;-75
2023/03/21 01:15:56;;;;;;;71.47;34.90;;;;;;;6.15;100.00;100972.03;4932489;29;20058;-75
2023/03/21 01:18:26;;;;;;;96.72;40.30;;;;;;;6.12;100.00;100967.81;4920016;29;20033;-76
2023/03/21 01:20:52;;;;;;;79.13;37.53;;;;;;;6.10;100.00;100975.88;4916096;29;20513;-74
2023/03/21 01:23:17;;;;;;;;;;;;;;;6.19;100.00;100974.28;4933290;29;20046;-75
2023/03/21 01:25:43;;;;;;;71.90;34.92;;;;;;;6.19;100.00;100968.97;4931407;29;20413;-76
2023/03/21 01:28:09;;;;;;;72.17;33.97;;;;;;;6.17;100.00;100968.25;4917897;29;20587;-77
2023/03/21 01:30:35;;;;;;;70.68;34.85;;;;;;;6.20;100.00;100975.13;4915061;29;20031;-77
2023/03/21 01:33:01;;;;;;;73.25;36.75;;;;;;;6.13;100.00;100964.19;4933461;29;20538;-77
2023/03/21 01:35:27;;;;;;;76.47;35.27;;;;;;;6.12;100.00;100957.22;4931948;29;20036;-77
2023/03/21 01:37:52;;;;;;;65.63;32.57;;;;;;;6.18;100.00;100962.00;4917002;29;20339;-76
2023/03/21 01:40:24;;;;;;;74.17;36.03;;;;;;;6.24;100.00;100961.47;4954931;28;20372;-77
2023/03/21 01:42:53;;;;;;;62.88;31.95;;;;;;;6.23;100.00;100964.28;4957502;28;20046;-76
2023/03/21 01:45:57;;;;;;;76.85;35.58;;;;;;;6.22;100.00;100954.63;4973324;28;20034;-77
2023/03/21 01:48:30;;;;;;;68.07;32.78;;;;;;;6.21;100.00;100956.44;4955827;28;20500;-78
2023/03/21 01:50:58;;;;;;;66.63;34.20;;;;;;;6.26;100.00;100953.41;4958088;28;20126;-77
2023/03/21 01:53:39;;;;;;;68.90;33.95;;;;;;;6.23;100.00;100949.19;4972181;28;20034;-75
2023/03/21 01:56:13;;;;;;;73.78;34.22;;;;;;;6.22;100.00;100955.47;4958103;28;20033;-75
2023/03/21 01:59:02;;;;;;;75.65;34.92;;;;;;;6.24;100.00;100950.88;4963544;28;20035;-78
2023/03/21 02:01:49;;;;;;;76.63;35.72;;;;;;;6.22;100.00;100942.19;4976020;28;20114;-76
2023/03/21 02:04:26;;;;;;;72.35;35.10;;;;;;;6.24;100.00;100944.72;4975377;28;20026;-76
2023/03/21 02:07:24;;;;;;;72.88;33.63;;;;;;;6.24;100.00;100940.25;4961645;28;20038;-78
2023/03/21 02:09:54;;;;;;;70.20;32.10;;;;;;;6.21;100.00;100943.19;4970282;28;20054;-78
2023/03/21 02:12:22;;;;;;;72.70;34.97;;;;;;;6.22;100.00;100936.06;4973840;28;20058;-78
2023/03/21 02:14:48;;;;;;;;;;;;;;;6.23;100.00;100943.06;4959693;28;20086;-76
2023/03/21 02:17:55;;;;;;;77.72;35.75;;;;;;;6.22;100.00;100939.56;4977343;28;19920;-76
2023/03/21 02:21:07;;;;;;;79.07;35.67;;;;;;;6.18;100.00;100934.63;4959655;28;20030;-78
2023/03/21 02:23:49;;;;;;;76.70;33.08;;;;;;;6.27;100.00;100942.66;4942709;28;20031;-77
2023/03/21 02:26:34;;;;;;;76.45;34.65;;;;;;;6.24;100.00;100934.97;4975844;28;20093;-78
2023/03/21 02:29:21;;;;;;;81.93;35.63;;;;;;;6.20;100.00;100930.03;4959838;28;20031;-76
2023/03/21 02:31:56;;;;;;;;;;;;;;;6.28;100.00;100924.94;4974590;28;20070;-77
2023/03/21 02:34:36;;;;;;;74.63;33.80;;;;;;;6.28;100.00;100931.09;4971021;28;19973;-77
2023/03/21 02:37:45;;;;;;;89.10;35.10;;;;;;;6.24;100.00;100928.81;4973844;28;20021;-77
2023/03/21 02:40:20;;;;;;;74.40;34.22;;;;;;;6.30;100.00;100923.84;4949131;28;20137;-77
2023/03/21 02:42:58;;;;;;;76.85;34.53;;;;;;;6.30;100.00;100923.84;4973572;28;20042;-78
2023/03/21 02:45:30;;;;;;;75.85;34.75;;;;;;;6.29;100.00;100932.75;4970350;28;20448;-77
2023/03/21 02:48:06;;;;;;;67.47;33.50;;;;;;;6.25;100.00;100919.88;4972859;28;20037;-77
2023/03/21 02:50:45;;;;;;;90.82;36.85;;;;;;;6.19;100.00;100918.59;4970808;28;20447;-77
2023/03/21 02:53:16;;;;;;;80.25;36.20;;;;;;;6.21;100.00;100919.31;4945063;28;20079;-77
2023/03/21 02:55:42;;;;;;;78.75;34.63;;;;;;;6.17;100.00;100912.59;4971005;28;20512;-77
2023/03/21 02:58:12;;;;;;;78.22;36.03;;;;;;;6.28;100.00;100920.47;4968046;28;20036;-78
2023/03/21 03:00:42;;;;;;;79.45;34.65;;;;;;;6.28;100.00;100922.31;4957187;28;20065;-77
2023/03/21 03:03:08;;;;;;;88.38;37.50;;;;;;;6.23;100.00;100906.78;4968283;28;20045;-78
2023/03/21 03:05:39;;;;;;;71.88;34.28;;;;;;;6.27;100.00;100918.78;4954145;28;20494;-78
2023/03/21 03:08:05;;;;;;;86.30;36.28;;;;;;;6.24;100.00;100916.41;4959498;28;20137;-77
2023/03/21 03:10:36;;;;;;;84.28;34.08;;;;;;;6.22;100.00;100912.19;4961510;28;20105;-78
2023/03/21 03:13:05;;;;;;;78.97;32.72;;;;;;;6.19;100.00;100910.66;4975710;28;20047;-78
2023/03/21 03:15:51;;;;;;;83.65;37.70;;;;;;;6.21;100.00;100913.19;4970753;28;20085;-77
2023/03/21 03:18:43;;;;;;;71.72;34.05;;;;;;;6.22;100.00;100907.72;4955124;28;20496;-78
2023/03/21 03:21:21;;;;;;;83.07;35.92;;;;;;;6.28;100.00;100904.56;4956872;28;20058;-78
2023/03/21 03:24:01;;;;;;;86.70;35.25;;;;;;;6.17;100.00;100904.63;4956991;28;20575;-77
2023/03/21 03:26:39;;;;;;;71.90;31.90;;;;;;;6.17;100.00;100898.50;4970119;28;20243;-78
2023/03/21 03:29:15;;;;;;;89.47;38.40;;;;;;;6.21;100.00;100892.81;4946408;28;20121;-78
2023/03/21 03:31:56;;;;;;;84.77;35.83;;;;;;;6.17;100.00;100899.34;4960850;28;20396;-77
2023/03/21 03:34:26;;;;;;;76.30;33.97;;;;;;;6.18;100.00;100892.22;4971756;28;20140;-78
2023/03/21 03:36:56;;;;;;;84.47;33.15;;;;;;;6.16;100.00;100889.72;4972448;28;21017;-78
2023/03/21 03:39:40;;;;;;;68.75;33.88;;;;;;;6.21;100.00;100892.81;4971847;28;20061;-77
2023/03/21 03:42:16;;;;;;;72.90;31.98;;;;;;;6.19;100.00;100894.75;4974238;28;20108;-78
2023/03/21 03:44:44;;;;;;;77.03;32.97;;;;;;;6.20;100.00;100890.28;4956685;28;20035;-77
2023/03/21 03:47:22;;;;;;;77.25;34.05;;;;;;;6.19;100.00;100893.91;4979023;28;20025;-78
2023/03/21 03:50:05;;;;;;;82.00;33.35;;;;;;;6.12;100.00;100878.53;4956763;28;20046;-77
2023/03/21 03:52:38;;;;;;;63.00;28.13;;;;;;;6.19;100.00;100893.91;4972454;28;20027;-78
2023/03/21 03:55:16;;;;;;;67.22;30.67;;;;;;;6.25;100.00;100896.88;4958526;28;20030;-77
2023/03/21 03:57:44;;;;;;;67.93;32.03;;;;;;;6.26;100.00;100892.41;4969244;28;20713;-77
2023/03/21 04:00:14;;;;;;;66.18;28.08;;;;;;;6.22;100.00;100891.81;4974248;28;20392;-78
2023/03/21 04:02:42;;;;;;;67.45;29.95;;;;;;;6.23;100.00;100885.56;4970758;28;20122;-77
2023/03/21 04:05:08;;;;;;;70.93;31.35;;;;;;;6.13;100.00;100869.63;4963540;28;20039;-78
2023/03/21 04:07:34;;;;;;;72.17;30.83;;;;;;;6.21;100.00;100876.06;4955507;28;20027;-77
2023/03/21 04:10:00;;;;;;;74.25;31.52;;;;;;;6.16;100.00;100872.94;4954922;28;20039;-77
2023/03/21 04:12:26;;;;;;;88.50;32.83;;;;;;;6.22;100.00;100883.88;4971629;28;20065;-77
2023/03/21 04:15:11;;;;;;;63.50;29.48;;;;;;;6.23;100.00;100879.44;4969168;28;20092;-77
2023/03/21 04:17:41;;;;;;;76.60;31.73;;;;;;;6.22;100.00;100886.53;4955998;28;20451;-77
2023/03/21 04:20:08;;;;;;;67.13;31.00;;;;;;;6.28;100.00;100882.53;4976247;23;20077;-87
2023/03/21 04:22:33;;;;;;;72.15;30.20;;;;;;;6.31;100.00;100895.50;4967137;28;20022;-87
2023/03/21 04:25:00;;;;;;;78.70;32.97;;;;;;;6.20;100.00;100872.56;4973964;28;20037;-87
2023/03/21 04:27:26;;;;;;;69.55;31.58;;;;;;;6.26;100.00;100885.31;4991431;28;20038;-88
2023/03/21 04:30:23;;;;;;;71.68;30.88;;;;;;;6.22;100.00;100872.44;4942020;28;20082;-87
2023/03/21 04:32:55;;;;;;;77.07;32.47;;;;;;;6.27;100.00;100880.84;4932773;29;20035;-87
2023/03/21 04:35:23;;;;;;;73.20;31.23;;;;;;;6.27;100.00;100878.19;4932692;29;20456;-86
2023/03/21 04:37:49;;;;;;;71.25;32.25;;;;;;;6.36;100.00;100885.34;4932898;29;20095;-86
2023/03/21 04:40:17;;;;;;;72.65;30.52;;;;;;;6.32;100.00;100879.47;4928514;29;20565;-87
2023/03/21 04:42:44;;;;;;;76.80;31.80;;;;;;;6.27;100.00;100871.06;4944035;29;20044;-87
2023/03/21 04:45:11;;;;;;;69.80;29.80;;;;;;;6.29;100.00;100871.78;4951674;29;20023;-86
2023/03/21 04:47:37;;;;;;;77.78;31.88;;;;;;;6.28;100.00;100877.22;4935902;29;20020;-88
2023/03/21 04:50:03;;;;;;;78.72;31.05;;;;;;;6.32;100.00;100874.19;4950721;29;20459;-89
2023/03/21 04:52:29;;;;;;;81.43;31.90;;;;;;;6.26;100.00;100873.84;4952242;29;20039;-87
2023/03/21 04:54:55;;;;;;;75.65;32.67;;;;;;;6.23;100.00;100874.13;4935708;29;20054;-87
2023/03/21 04:57:21;;;;;;;;;;;;;;;6.24;100.00;100876.63;4936570;29;20024;-86
2023/03/21 04:59:46;;;;;;;85.00;31.17;;;;;;;6.24;100.00;100870.50;4948309;28;20060;-86
2023/03/21 05:02:13;;;;;;;89.78;33.10;;;;;;;6.24;100.00;100873.16;4950464;29;20042;-88
2023/03/21 05:04:38;;;;;;;78.00;31.60;;;;;;;6.20;100.00;100872.56;4932752;29;20051;-88
2023/03/21 05:07:04;;;;;;;73.43;30.52;;;;;;;6.22;100.00;100865.31;4933079;29;20072;-86
2023/03/21 05:09:30;;;;;;;90.35;34.95;;;;;;;6.22;100.00;100867.97;4940875;29;20028;-86
2023/03/21 05:11:56;;;;;;;94.23;35.60;;;;;;;6.22;100.00;100875.09;4952148;29;20031;-87
2023/03/21 05:14:24;;;;;;;80.15;33.83;;;;;;;6.26;100.00;100868.56;4938260;29;20038;-87
2023/03/21 05:16:55;;;;;;;92.82;35.33;;;;;;;6.20;100.00;100869.91;4940324;29;20065;-86
2023/03/21 05:19:35;;;;;;;77.22;33.80;;;;;;;6.27;100.00;100871.06;4931925;29;20027;-87
2023/03/21 05:22:06;;;;;;;90.93;35.70;;;;;;;6.26;100.00;100869.38;4951543;29;20496;-86
2023/03/21 05:24:32;;;;;;;93.43;36.83;;;;;;;6.22;100.00;100865.31;4937795;29;20039;-87
2023/03/21 05:27:00;;;;;;;94.53;35.17;;;;;;;6.19;100.00;100865.59;4947883;29;20055;-88
2023/03/21 05:29:29;;;;;;;88.20;35.85;;;;;;;6.29;100.00;100873.59;4932431;29;20047;-86
2023/03/21 05:31:59;;;;;;;100.40;37.20;;;;;;;6.35;100.00;100878.38;4934611;29;20080;-86
2023/03/21 05:34:25;;;;;;;;;;;;;;;6.45;100.00;100878.41;4919498;29;20035;-86
2023/03/21 05:36:52;;;;;;;87.38;34.17;;;;;;;6.37;100.00;100875.56;4945167;29;19917;-86
2023/03/21 05:39:18;;;;;;;85.38;36.40;;;;;;;6.30;100.00;100870.81;4942211;29;20097;-87
2023/03/21 05:41:55;;;;;;;84.45;36.33;;;;;;;6.38;100.00;100871.97;4949759;29;20045;-86
2023/03/21 05:44:22;;;;;;;90.90;34.72;;;;;;;6.39;100.00;100863.88;4943230;29;20031;-89
2023/03/21 05:46:47;;;;;;;93.73;37.63;;;;;;;6.35;100.00;100873.06;4950530;28;20457;-88
2023/03/21 05:49:13;;;;;;;85.53;37.50;;;;;;;6.33;100.00;100865.25;4941579;29;20686;-88
2023/03/21 05:51:40;;;;;;;91.75;35.95;;;;;;;6.31;100.00;100864.53;4954516;29;20114;-87
2023/03/21 05:54:06;;;;;;;92.18;37.75;;;;;;;6.36;100.00;100864.13;4932795;29;20440;-87
2023/03/21 05:56:32;;;;;;;85.40;34.53;;;;;;;6.36;100.00;100864.13;4948370;29;20037;-88
2023/03/21 05:59:02;;;;;;;92.45;36.72;;;;;;;6.34;100.00;100860.78;4946944;29;20039;-86
2023/03/21 06:01:34;;;;;;;83.05;34.65;;;;;;;6.39;100.00;100863.03;4941173;29;20059;-87
2023/03/21 06:04:07;;;;;;;94.80;36.15;;;;;;;6.35;100.00;100865.13;4950977;28;20040;-87
2023/03/21 06:06:34;;;;;;;100.82;38.13;;;;;;;6.42;100.00;100868.09;4936543;29;20028;-87
2023/03/21 06:09:00;;;;;;;90.05;35.58;;;;;;;6.42;100.00;100866.25;4938789;29;20032;-86
2023/03/21 06:11:29;;;;;;;96.13;37.00;;;;;;;6.44;100.00;100863.47;4955385;29;20795;-88
2023/03/21 06:14:15;;;;;;;96.95;36.63;;;;;;;6.40;100.00;100856.75;4922550;29;20047;-86
2023/03/21 06:16:42;;;;;;;86.55;36.67;;;;;;;6.50;100.00;100870.91;4944608;29;20074;-87
2023/03/21 06:19:08;;;;;;;91.35;35.85;;;;;;;6.50;100.00;100863.78;4936209;29;20078;-87
2023/03/21 06:22:09;;;;;;;100.45;38.97;;;;;;;6.56;100.00;100867.72;4882451;29;20087;-87
2023/03/21 06:24:37;;;;;;;96.10;38.35;;;;;;;6.55;100.00;100861.59;4919749;29;20106;-87
2023/03/21 06:27:03;;;;;;;86.05;37.22;;;;;;;6.49;100.00;100862.09;4955633;29;20027;-87
2023/03/21 06:29:37;;;;;;;84.85;36.08;;;;;;;6.61;100.00;100865.50;4951240;29;20119;-86
2023/03/21 06:32:03;;;;;;;81.65;37.00;;;;;;;6.56;100.00;100859.75;4940041;29;20046;-85
2023/03/21 06:34:28;;;;;;;82.53;36.85;;;;;;;6.60;100.00;100865.63;4937546;29;20393;-86
2023/03/21 06:36:53;;;;;;;77.83;36.13;;;;;;;6.79;100.00;100863.06;4951042;29;20035;-86
2023/03/21 06:39:25;;;;;;;87.88;38.30;;;;;;;6.70;100.00;100861.22;4945495;28;20091;-86
2023/03/21 06:41:50;;;;;;;96.75;38.05;;;;;;;6.70;100.00;100862.06;4945973;29;20035;-86
2023/03/21 06:44:16;;;;;;;95.20;38.90;;;;;;;6.59;100.00;100856.84;4956609;28;20078;-87
2023/03/21 06:46:50;;;;;;;94.38;39.50;;;;;;;6.63;100.00;100852.94;4940460;29;20032;-86
2023/03/21 06:49:18;;;;;;;97.28;41.17;;;;;;;6.75;100.00;100853.69;4959160;29;20021;-89
2023/03/21 06:51:44;;;;;;;98.50;40.83;;;;;;;6.84;100.00;100852.03;4964322;29;20033;-89
2023/03/21 06:54:17;;;;;;;101.22;41.05;;;;;;;6.87;100.00;100851.75;4954239;29;20432;-87
2023/03/21 06:56:58;;;;;;;98.95;41.05;;;;;;;6.86;100.00;100856.25;4946651;29;20028;-89
2023/03/21 06:59:31;;;;;;;97.53;39.95;;;;;;;6.76;100.00;100856.19;4952234;29;20028;-89
2023/03/21 07:02:00;;;;;;;95.10;41.22;;;;;;;6.88;100.00;100856.94;4946621;29;20012;-87
2023/03/21 07:04:27;;;;;;;103.45;41.08;;;;;;;6.92;100.00;100855.66;4952669;29;20037;-88
2023/03/21 07:06:53;;;;;;;84.18;36.03;;;;;;;7.05;100.00;100855.44;4952191;29;20034;-88
2023/03/21 07:09:23;;;;;;;93.93;40.63;;;;;;;7.03;100.00;100848.59;4953358;29;20047;-87
2023/03/21 07:11:52;;;;;;;97.68;39.80;;;;;;;7.11;100.00;100854.03;4945984;29;20107;-88
2023/03/21 07:14:19;;;;;;;85.85;37.85;;;;;;;7.17;100.00;100853.50;4950228;28;20038;-88
2023/03/21 07:16:44;;;;;;;83.95;38.78;;;;;;;7.16;100.00;100851.81;4961571;29;20027;-87
2023/03/21 07:19:11;;;;;;;91.53;39.30;;;;;;;7.04;100.00;100848.44;4941304;29;20050;-88
2023/03/21 07:21:37;;;;;;;84.20;39.00;;;;;;;7.12;100.00;100851.25;4942178;29;20126;-87
2023/03/21 07:24:02;;;;;;;90.60;38.93;;;;;;;7.23;100.00;100849.44;4927008;29;20043;-88
2023/03/21 07:26:28;;;;;;;84.10;38.40;;;;;;;7.16;100.00;100844.69;4949601;29;20409;-87
2023/03/21 07:28:53;;;;;;;84.90;38.55;;;;;;;7.22;100.00;100843.31;4941156;29;20031;-87
2023/03/21 07:31:19;;;;;;;78.13;35.05;;;;;;;7.38;100.00;100858.69;4947350;29;20035;-88
2023/03/21 07:33:47;;;;;;;78.57;35.17;;;;;;;7.28;100.00;100850.72;4954070;29;20047;-88
2023/03/21 07:36:14;;;;;;;84.35;38.33;;;;;;;7.19;100.00;100846.25;4954347;29;20034;-88
2023/03/21 07:38:40;;;;;;;84.10;38.60;;;;;;;7.36;100.00;100842.88;4961471;28;20047;-88
2023/03/21 07:41:06;;;;;;;83.70;39.65;;;;;;;7.45;100.00;100835.91;4957111;29;20019;-88
2023/03/21 07:43:32;;;;;;;67.57;32.65;;;;;;;7.51;100.00;100835.31;4961025;28;20110;-88
2023/03/21 07:45:58;;;;;;;67.83;33.10;;;;;;;7.42;100.00;100830.84;4949628;29;20067;-87
2023/03/21 07:48:25;;;;;;;64.90;31.98;;;;;;;7.39;100.00;100825.81;4941944;29;20039;-87
2023/03/21 07:50:51;;;;;;;67.78;32.40;;;;;;;7.59;100.00;100832.00;4947275;29;20035;-86
2023/03/21 07:53:16;;;;;;;61.23;30.90;;;;;;;7.48;100.00;100817.03;4953072;29;20821;-86
2023/03/21 07:55:42;;;;;;;66.32;31.83;;;;;;;7.42;100.00;100809.59;4947120;29;20046;-88
2023/03/21 07:58:07;;;;;;;66.78;32.17;;;;;;;7.49;100.00;100808.09;4939771;29;20127;-88
2023/03/21 08:00:33;;;;;;;63.63;31.95;;;;;;;7.50;100.00;100815.06;4940820;29;20040;-86
2023/03/21 08:02:59;;;;;;;69.53;33.93;;;;;;;7.58;100.00;100811.69;4943416;29;20047;-87
2023/03/21 08:05:32;;;;;;;68.80;31.25;;;;;;;7.49;100.00;100808.09;4946588;29;20026;-86
2023/03/21 08:07:58;;;;;;;73.60;33.67;;;;;;;7.47;100.00;100802.06;4949341;29;20043;-88
2023/03/21 08:10:24;;;;;;;71.07;33.97;;;;;;;7.51;100.00;100814.06;4940560;28;20086;-87
2023/03/21 08:12:49;;;;;;;68.88;32.08;;;;;;;7.60;100.00;100815.88;4940911;29;20130;-87
2023/03/21 08:15:15;;;;;;;70.85;32.65;;;;;;;7.63;100.00;100811.28;4947327;29;20031;-86
2023/03/21 08:17:44;;;;;;;72.10;33.00;;;;;;;7.65;100.00;100814.63;4941247;29;20027;-85
2023/03/21 08:20:12;;;;;;;72.13;34.78;;;;;;;7.81;100.00;100812.22;4948215;29;20094;-85
2023/03/21 08:22:37;;;;;;;76.28;35.97;;;;;;;7.82;100.00;100811.25;4950287;29;20554;-87
2023/03/21 08:25:05;;;;;;;66.10;32.60;;;;;;;7.84;100.00;100814.59;4937392;29;20035;-87
2023/03/21 08:27:31;;;;;;;70.45;32.38;;;;;;;7.80;100.00;100795.44;4935154;29;20446;-85
2023/03/21 08:29:57;;;;;;;68.85;32.97;;;;;;;7.92;100.00;100801.44;4949523;28;20090;-86
2023/03/21 08:32:28;;;;;;;72.88;35.72;;;;;;;8.00;100.00;100804.19;4935301;29;21014;-87
2023/03/21 08:34:54;;;;;;;66.05;31.88;;;;;;;7.90;100.00;100798.06;4919457;29;20046;-87
2023/03/21 08:37:20;;;;;;;78.63;33.83;;;;;;;7.81;100.00;100794.44;4947284;29;20034;-85
2023/03/21 08:39:45;;;;;;;79.63;35.63;;;;;;;7.79;100.00;100798.25;4950386;28;20504;-86
2023/03/21 08:42:11;;;;;;;74.73;35.20;;;;;;;7.81;100.00;100796.28;4938209;29;20032;-86
2023/03/21 08:44:37;;;;;;;72.73;35.27;;;;;;;7.80;100.00;100791.97;4933850;29;20058;-86
2023/03/21 08:47:03;;;;;;;77.68;37.15;;;;;;;7.77;100.00;100798.41;4944576;29;20439;-86
2023/03/21 08:49:29;;;;;;;76.15;35.90;;;;;;;7.94;100.00;100810.09;4948969;28;20039;-81
2023/03/21 08:51:55;;;;;;;80.63;37.60;;;;;;;7.97;100.00;100803.66;4993197;23;20510;-75
2023/03/21 08:54:21;;;;;;;74.07;35.58;;;;;;;7.81;100.00;100799.78;4982769;28;20022;-75
2023/03/21 08:56:47;;;;;;;86.40;41.45;;;;;;;7.81;100.00;100812.22;5002850;28;20029;-74
2023/03/21 08:59:13;;;;;;;87.13;38.65;;;;;;;7.75;100.00;100804.81;4998446;28;20034;-74
2023/03/21 09:01:38;;;;;;;84.27;39.20;;;;;;;7.79;100.00;100812.34;5021657;28;20029;-75
2023/03/21 09:04:06;;;;;;;89.10;40.27;;;;;;;7.71;100.00;100817.56;5011477;28;20402;-75
2023/03/21 09:06:32;;;;;;;94.75;42.25;;;;;;;7.63;100.00;100816.59;5002981;28;20383;-74
2023/03/21 09:08:58;;;;;;;98.93;41.28;;;;;;;7.66;100.00;100813.66;5023397;28;20502;-74
2023/03/21 09:11:24;;;;;;;90.53;41.10;;;;;;;7.71;100.00;100827.34;5005153;28;20087;-74
2023/03/21 09:13:50;;;;;;;99.80;42.35;;;;;;;7.73;100.00;100818.25;5000900;28;20083;-74
2023/03/21 09:16:15;;;;;;;100.00;44.75;;;;;;;7.71;100.00;100822.03;4975965;28;20545;-74
2023/03/21 09:18:49;;;;;;;91.50;40.90;;;;;;;7.61;100.00;100814.91;5002068;28;20033;-74
2023/03/21 09:21:17;;;;;;;90.63;40.53;;;;;;;7.82;100.00;100835.19;5006944;28;20038;-75
2023/03/21 09:23:47;;;;;;;86.10;41.30;;;;;;;7.76;100.00;100825.09;5004821;28;20132;-75
2023/03/21 09:26:13;;;;;;;83.68;42.17;;;;;;;7.81;100.00;100831.66;5005583;28;20383;-75
2023/03/21 09:28:39;;;;;;;75.45;36.80;;;;;;;7.87;100.00;100835.59;4985650;28;20038;-75
2023/03/21 09:31:07;;;;;;;78.88;38.83;;;;;;;7.79;100.00;100830.13;5019969;28;20501;-74
2023/03/21 09:33:34;;;;;;;76.43;38.50;;;;;;;7.77;100.00;100826.78;5002678;28;20033;-74
2023/03/21 09:35:59;;;;;;;78.22;39.38;;;;;;;7.76;100.00;100822.44;5020640;28;20049;-74
2023/03/21 09:38:29;;;;;;;79.43;39.38;;;;;;;7.82;100.00;100824.56;5001679;28;20029;-75
2023/03/21 09:41:16;;;;;;;71.22;38.50;;;;;;;7.76;100.00;100817.13;5003381;28;20088;-75
2023/03/21 09:44:20;;;;;;;74.28;36.08;;;;;;;7.85;100.00;100826.09;5011093;28;20386;-75
2023/03/21 09:47:01;;;;;;;79.75;38.10;;;;;;;7.75;100.00;100820.75;5009084;28;20038;-74
2023/03/21 09:49:38;;;;;;;84.43;39.70;;;;;;;7.80;100.00;100824.69;5005373;28;20022;-75
2023/03/21 09:52:21;;;;;;;79.28;38.03;;;;;;;7.86;100.00;100811.78;4994242;28;20116;-75
2023/03/21 09:54:47;;;;;;;83.88;39.58;;;;;;;7.89;100.00;100825.66;5016851;28;20037;-75
2023/03/21 09:57:51;;;;;;;;;;;;;;;8.00;100.00;100828.13;5023511;28;20017;-75
2023/03/21 10:00:26;;;;;;;86.00;38.25;;;;;;;7.96;100.00;100824.09;4919252;29;19918;-75
2023/03/21 10:02:58;;;;;;;82.05;38.10;;;;;;;7.88;100.00;100812.50;4918995;29;20106;-75
2023/03/21 10:05:27;;;;;;;82.03;40.03;;;;;;;7.92;100.00;100814.72;4970240;28;20136;-75
2023/03/21 10:07:55;;;;;;;77.80;39.50;;;;;;;7.97;100.00;100817.78;5004300;28;20385;-74
2023/03/21 10:10:26;;;;;;;80.07;39.63;;;;;;;7.90;100.00;100808.72;4994203;28;20037;-74
2023/03/21 10:12:53;;;;;;;76.38;37.85;;;;;;;8.07;100.00;100819.59;5004398;28;20460;-74
2023/03/21 10:15:21;;;;;;;74.05;38.60;;;;;;;8.01;100.00;100811.22;5004004;28;20034;-75
2023/03/21 10:17:54;;;;;;;76.35;38.25;;;;;;;8.04;100.00;100807.41;5001215;28;20057;-75
2023/03/21 10:20:22;;;;;;;84.28;40.65;;;;;;;8.14;100.00;100812.69;4985037;23;20418;-74
2023/03/21 10:22:51;;;;;;;72.80;37.63;;;;;;;8.11;100.00;100813.00;4952389;28;20093;-74
2023/03/21 10:25:25;;;;;;;88.15;41.95;;;;;;;8.19;100.00;100813.09;4979874;28;20515;-74
2023/03/21 10:27:51;;;;;;;80.00;37.40;;;;;;;8.10;100.00;100806.00;4951628;28;20141;-74
2023/03/21 10:30:29;;;;;;;78.65;38.60;;;;;;;8.25;100.00;100812.53;4978083;28;20038;-74
2023/03/21 10:32:58;;;;;;;70.63;37.00;;;;;;;8.30;100.00;100815.59;4978753;28;20042;-74
2023/03/21 10:35:24;;;;;;;70.63;34.47;;;;;;;8.29;100.00;100811.25;4970418;28;20026;-74
2023/03/21 10:37:49;;;;;;;66.43;34.80;;;;;;;8.30;100.00;100814.75;4964996;28;20037;-75
2023/03/21 10:40:17;;;;;;;65.97;32.37;;;;;;;8.23;100.00;100799.38;4936529;28;20039;-74
2023/03/21 10:42:43;;;;;;;68.22;37.40;;;;;;;8.36;100.00;100799.03;4962864;28;20479;-74
2023/03/21 10:45:21;;;;;;;68.13;35.30;;;;;;;8.40;100.00;100799.59;4978332;28;20034;-74
2023/03/21 10:47:48;;;;;;;63.70;33.58;;;;;;;8.45;100.00;100797.34;4962262;28;20113;-74
2023/03/21 10:50:18;;;;;;;61.08;32.33;;;;;;;8.48;100.00;100796.22;4950914;28;20039;-74
2023/03/21 10:52:50;;;;;;;56.70;30.95;;;;;;;8.51;100.00;100795.94;4951977;28;20074;-74
2023/03/21 10:55:29;;;;;;;58.38;29.58;;;;;;;8.51;100.00;100779.97;4953253;28;20058;-74
2023/03/21 10:58:06;;;;;;;54.25;30.20;;;;;;;8.61;100.00;100780.72;4964116;28;20082;-74
2023/03/21 11:00:40;;;;;;;58.38;30.50;;;;;;;8.51;100.00;100774.63;4980647;28;20153;-73
2023/03/21 11:03:06;;;;;;;53.08;29.67;;;;;;;8.49;100.00;100777.44;4977512;28;20503;-74
2023/03/21 11:05:38;;;;;;;59.28;30.83;;;;;;;8.50;100.00;100779.13;4978935;28;20026;-73
2023/03/21 11:08:17;;;;;;;53.20;31.00;;;;;;;8.66;100.00;100776.66;4976806;28;20464;-74
2023/03/21 11:10:57;;;;;;;62.13;32.30;;;;;;;8.57;100.00;100771.38;4978206;28;20060;-74
2023/03/21 11:13:33;;;;;;;51.88;29.55;;;;;;;8.55;100.00;100776.03;4967611;28;20034;-73
2023/03/21 11:16:11;;;;;;;52.90;30.08;;;;;;;8.60;100.00;100769.25;4977457;28;20042;-74
2023/03/21 11:18:42;;;;;;;56.00;30.35;;;;;;;8.61;100.00;100773.59;4963183;28;20471;-76
2023/03/21 11:21:10;;;;;;;54.63;30.23;;;;;;;8.60;100.00;100766.59;4960713;28;20232;-74
2023/03/21 11:23:42;;;;;;;57.30;30.73;;;;;;;8.63;100.00;100760.97;4979111;28;20022;-74
2023/03/21 11:26:10;;;;;;;52.35;29.02;;;;;;;8.58;100.00;100765.91;4951165;28;20057;-74
2023/03/21 11:28:39;;;;;;;54.15;29.10;;;;;;;8.68;100.00;100765.00;4979709;28;20030;-74
2023/03/21 11:31:08;;;;;;;50.88;28.63;;;;;;;8.68;100.00;100757.03;4958376;28;20387;-75